sensor_id;sensor_type;location;lat;lon;timestamp;pressure;altitude;pressure_sealevel;temperature;humidity
60258;BME280;46115;44.484;11.314;2023-05-11T00:03:28;99815.31;;;13.90;100.00
60258;BME280;46115;44.484;11.314;2023-05-11T00:07:30;99806.09;;;13.33;100.00
60258;BME280;46115;44.484;11.314;2023-05-11T00:11:33;99803.00;;;13.76;100.00
60258;BME280;46115;44.484;11.314;2023-05-11T00:15:36;99800.59;;;13.73;100.00
60258;BME280;46115;44.484;11.314;2023-05-11T00:19:39;99781.66;;;13.54;100.00
60258;BME280;46115;44.484;11.314;2023-05-11T00:23:41;99787.81;;;13.54;100.00
60258;BME280;46115;44.484;11.314;2023-05-11T00:27:43;99784.19;;;13.42;100.00
60258;BME280;46115;44.484;11.314;2023-05-11T00:31:47;99792.34;;;13.52;100.00
60258;BME280;46115;44.484;11.314;2023-05-11T00:35:50;99790.13;;;13.46;100.00
60258;BME280;46115;44.484;11.314;2023-05-11T00:39:52;99755.28;;;13.51;100.00
60258;BME280;46115;44.484;11.314;2023-05-11T00:43:55;99785.84;;;13.69;100.00
60258;BME280;46115;44.484;11.314;2023-05-11T00:47:59;99773.41;;;13.69;100.00
60258;BME280;46115;44.484;11.314;2023-05-11T00:52:01;99783.84;;;13.60;100.00
60258;BME280;46115;44.484;11.314;2023-05-11T00:56:04;99776.47;;;13.14;100.00
60258;BME280;46115;44.484;11.314;2023-05-11T01:00:08;99782.63;;;13.40;100.00
60258;BME280;46115;44.484;11.314;2023-05-11T01:04:12;99781.19;;;13.23;100.00
60258;BME280;46115;44.484;11.314;2023-05-11T01:08:17;99759.31;;;12.94;100.00
60258;BME280;46115;44.484;11.314;2023-05-11T01:12:29;99778.75;;;13.20;100.00
60258;BME280;46115;44.484;11.314;2023-05-11T01:16:38;99762.34;;;13.13;100.00
60258;BME280;46115;44.484;11.314;2023-05-11T01:20:46;99781.38;;;12.95;100.00
60258;BME280;46115;44.484;11.314;2023-05-11T01:25:04;99788.88;;;13.39;100.00
60258;BME280;46115;44.484;11.314;2023-05-11T01:29:49;99785.25;;;13.15;100.00
60258;BME280;46115;44.484;11.314;2023-05-11T01:34:03;99787.06;;;13.14;100.00
60258;BME280;46115;44.484;11.314;2023-05-11T01:38:10;99748.97;;;13.15;100.00
60258;BME280;46115;44.484;11.314;2023-05-11T01:42:14;99797.59;;;13.41;100.00
60258;BME280;46115;44.484;11.314;2023-05-11T01:46:18;99787.72;;;13.05;100.00
60258;BME280;46115;44.484;11.314;2023-05-11T01:50:24;99796.00;;;13.38;100.00
60258;BME280;46115;44.484;11.314;2023-05-11T01:54:27;99795.03;;;13.39;100.00
60258;BME280;46115;44.484;11.314;2023-05-11T01:58:32;99804.78;;;13.52;100.00
60258;BME280;46115;44.484;11.314;2023-05-11T02:02:35;99802.78;;;13.42;100.00
60258;BME280;46115;44.484;11.314;2023-05-11T02:06:41;99804.38;;;13.45;100.00
60258;BME280;46115;44.484;11.314;2023-05-11T02:10:45;99799.94;;;13.33;100.00
60258;BME280;46115;44.484;11.314;2023-05-11T02:14:50;99799.28;;;13.42;100.00
60258;BME280;46115;44.484;11.314;2023-05-11T02:18:54;99801.59;;;13.47;100.00
60258;BME280;46115;44.484;11.314;2023-05-11T02:22:59;99800.97;;;13.92;100.00
60258;BME280;46115;44.484;11.314;2023-05-11T02:27:02;99800.31;;;13.65;100.00
60258;BME280;46115;44.484;11.314;2023-05-11T02:31:08;99789.34;;;13.20;100.00
60258;BME280;46115;44.484;11.314;2023-05-11T02:35:17;99795.16;;;13.38;100.00
60258;BME280;46115;44.484;11.314;2023-05-11T02:39:28;99791.50;;;13.52;100.00
60258;BME280;46115;44.484;11.314;2023-05-11T02:43:34;99798.44;;;13.41;100.00
60258;BME280;46115;44.484;11.314;2023-05-11T02:47:40;99789.94;;;13.36;100.00
60258;BME280;46115;44.484;11.314;2023-05-11T02:51:46;99785.22;;;13.65;100.00
60258;BME280;46115;44.484;11.314;2023-05-11T02:55:52;99775.09;;;13.34;100.00
60258;BME280;46115;44.484;11.314;2023-05-11T02:59:56;99778.47;;;13.10;100.00
60258;BME280;46115;44.484;11.314;2023-05-11T03:03:59;99770.53;;;12.98;100.00
60258;BME280;46115;44.484;11.314;2023-05-11T03:08:05;99781.47;;;13.68;100.00
60258;BME280;46115;44.484;11.314;2023-05-11T03:12:10;99767.59;;;13.52;100.00
60258;BME280;46115;44.484;11.314;2023-05-11T03:16:13;99768.44;;;13.52;100.00
60258;BME280;46115;44.484;11.314;2023-05-11T03:20:16;99771.75;;;13.19;100.00
60258;BME280;46115;44.484;11.314;2023-05-11T03:24:20;99769.38;;;13.27;100.00
60258;BME280;46115;44.484;11.314;2023-05-11T03:28:25;99772.66;;;13.31;100.00
60258;BME280;46115;44.484;11.314;2023-05-11T03:32:35;99780.50;;;12.81;100.00
60258;BME280;46115;44.484;11.314;2023-05-11T03:36:39;99764.19;;;12.88;100.00
60258;BME280;46115;44.484;11.314;2023-05-11T03:40:42;99778.06;;;12.78;100.00
60258;BME280;46115;44.484;11.314;2023-05-11T03:44:48;99782.66;;;12.89;100.00
60258;BME280;46115;44.484;11.314;2023-05-11T03:48:53;99786.59;;;13.22;100.00
60258;BME280;46115;44.484;11.314;2023-05-11T03:52:59;99790.56;;;13.40;100.00
60258;BME280;46115;44.484;11.314;2023-05-11T03:57:02;99784.03;;;13.20;100.00
60258;BME280;46115;44.484;11.314;2023-05-11T04:01:07;99786.78;;;13.06;100.00
60258;BME280;46115;44.484;11.314;2023-05-11T04:05:11;99787.63;;;13.06;100.00
60258;BME280;46115;44.484;11.314;2023-05-11T04:09:14;99778.72;;;12.95;100.00
60258;BME280;46115;44.484;11.314;2023-05-11T04:13:16;99784.75;;;12.97;100.00
60258;BME280;46115;44.484;11.314;2023-05-11T04:17:20;99788.47;;;13.07;100.00
60258;BME280;46115;44.484;11.314;2023-05-11T04:21:23;99787.81;;;13.16;100.00
60258;BME280;46115;44.484;11.314;2023-05-11T04:25:25;99787.41;;;13.09;100.00
60258;BME280;46115;44.484;11.314;2023-05-11T04:29:27;99793.78;;;12.94;100.00
60258;BME280;46115;44.484;11.314;2023-05-11T04:33:31;99790.16;;;13.08;100.00
60258;BME280;46115;44.484;11.314;2023-05-11T04:37:34;99790.28;;;13.32;100.00
60258;BME280;46115;44.484;11.314;2023-05-11T04:41:39;99803.66;;;13.18;100.00
60258;BME280;46115;44.484;11.314;2023-05-11T04:45:46;99759.91;;;13.36;100.00
60258;BME280;46115;44.484;11.314;2023-05-11T04:49:50;99800.28;;;13.28;100.00
60258;BME280;46115;44.484;11.314;2023-05-11T04:53:53;99801.97;;;13.29;100.00
60258;BME280;46115;44.484;11.314;2023-05-11T04:57:55;99803.53;;;12.81;100.00
60258;BME280;46115;44.484;11.314;2023-05-11T05:01:58;99802.59;;;13.07;100.00
60258;BME280;46115;44.484;11.314;2023-05-11T05:06:01;99811.53;;;13.32;100.00
60258;BME280;46115;44.484;11.314;2023-05-11T05:10:04;99808.66;;;13.35;100.00
60258;BME280;46115;44.484;11.314;2023-05-11T05:14:08;99810.09;;;13.52;100.00
60258;BME280;46115;44.484;11.314;2023-05-11T05:18:11;99814.78;;;12.97;100.00
60258;BME280;46115;44.484;11.314;2023-05-11T05:22:15;99799.84;;;12.96;100.00
60258;BME280;46115;44.484;11.314;2023-05-11T05:26:17;99815.53;;;13.12;100.00
60258;BME280;46115;44.484;11.314;2023-05-11T05:30:21;99817.53;;;13.47;100.00
60258;BME280;46115;44.484;11.314;2023-05-11T05:34:24;99819.47;;;13.32;100.00
60258;BME280;46115;44.484;11.314;2023-05-11T05:38:28;99818.81;;;13.54;100.00
60258;BME280;46115;44.484;11.314;2023-05-11T05:42:32;99816.34;;;13.63;100.00
60258;BME280;46115;44.484;11.314;2023-05-11T05:46:34;99806.00;;;13.35;100.00
60258;BME280;46115;44.484;11.314;2023-05-11T05:50:37;99810.78;;;13.17;100.00
60258;BME280;46115;44.484;11.314;2023-05-11T05:54:41;99823.59;;;13.10;100.00
60258;BME280;46115;44.484;11.314;2023-05-11T05:58:43;99818.28;;;13.10;100.00
60258;BME280;46115;44.484;11.314;2023-05-11T06:02:47;99819.03;;;13.00;100.00
60258;BME280;46115;44.484;11.314;2023-05-11T06:06:57;99796.72;;;13.53;100.00
60258;BME280;46115;44.484;11.314;2023-05-11T06:11:02;99762.38;;;12.88;100.00
60258;BME280;46115;44.484;11.314;2023-05-11T06:15:05;99787.81;;;13.16;100.00
60258;BME280;46115;44.484;11.314;2023-05-11T06:19:11;99788.47;;;13.32;100.00
60258;BME280;46115;44.484;11.314;2023-05-11T06:23:14;99799.09;;;13.32;100.00
60258;BME280;46115;44.484;11.314;2023-05-11T06:27:20;99792.38;;;13.14;100.00
60258;BME280;46115;44.484;11.314;2023-05-11T06:31:26;99795.34;;;13.48;100.00
60258;BME280;46115;44.484;11.314;2023-05-11T06:35:29;99800.56;;;13.36;100.00
60258;BME280;46115;44.484;11.314;2023-05-11T06:39:34;99802.41;;;13.72;100.00
60258;BME280;46115;44.484;11.314;2023-05-11T06:43:39;99798.38;;;13.67;100.00
60258;BME280;46115;44.484;11.314;2023-05-11T06:47:53;99798.44;;;13.54;100.00
60258;BME280;46115;44.484;11.314;2023-05-11T06:51:57;99796.47;;;13.69;100.00
60258;BME280;46115;44.484;11.314;2023-05-11T06:55:59;99787.53;;;13.70;100.00
60258;BME280;46115;44.484;11.314;2023-05-11T07:00:04;99806.47;;;13.65;100.00
60258;BME280;46115;44.484;11.314;2023-05-11T07:04:07;99807.16;;;14.28;100.00
60258;BME280;46115;44.484;11.314;2023-05-11T07:08:09;99814.09;;;14.42;100.00
60258;BME280;46115;44.484;11.314;2023-05-11T07:12:11;99808.97;;;14.51;100.00
60258;BME280;46115;44.484;11.314;2023-05-11T07:16:15;99820.41;;;14.76;100.00
60258;BME280;46115;44.484;11.314;2023-05-11T07:20:18;99815.88;;;14.30;100.00
60258;BME280;46115;44.484;11.314;2023-05-11T07:24:20;99814.50;;;14.48;100.00
60258;BME280;46115;44.484;11.314;2023-05-11T07:28:23;99819.53;;;14.40;100.00
60258;BME280;46115;44.484;11.314;2023-05-11T07:32:26;99828.47;;;14.63;100.00
60258;BME280;46115;44.484;11.314;2023-05-11T07:36:29;99820.94;;;14.57;100.00
60258;BME280;46115;44.484;11.314;2023-05-11T07:40:31;99820.63;;;14.61;100.00
60258;BME280;46115;44.484;11.314;2023-05-11T07:44:34;99821.88;;;14.80;100.00
60258;BME280;46115;44.484;11.314;2023-05-11T07:48:38;99821.44;;;14.97;100.00
60258;BME280;46115;44.484;11.314;2023-05-11T07:52:40;99815.94;;;14.76;100.00
60258;BME280;46115;44.484;11.314;2023-05-11T07:56:43;99821.22;;;14.65;100.00
60258;BME280;46115;44.484;11.314;2023-05-11T08:00:45;99825.25;;;14.82;100.00
60258;BME280;46115;44.484;11.314;2023-05-11T08:04:49;99827.06;;;14.81;100.00
60258;BME280;46115;44.484;11.314;2023-05-11T08:08:51;99820.09;;;14.56;100.00
60258;BME280;46115;44.484;11.314;2023-05-11T08:12:54;99824.91;;;14.51;100.00
60258;BME280;46115;44.484;11.314;2023-05-11T08:16:56;99825.91;;;14.26;100.00
60258;BME280;46115;44.484;11.314;2023-05-11T08:21:00;99831.31;;;14.84;100.00
60258;BME280;46115;44.484;11.314;2023-05-11T08:25:03;99829.97;;;14.43;100.00
60258;BME280;46115;44.484;11.314;2023-05-11T08:29:06;99838.53;;;14.71;100.00
60258;BME280;46115;44.484;11.314;2023-05-11T08:33:09;99837.34;;;14.86;100.00
60258;BME280;46115;44.484;11.314;2023-05-11T08:37:13;99834.84;;;14.95;100.00
60258;BME280;46115;44.484;11.314;2023-05-11T08:41:15;99829.91;;;14.32;100.00
60258;BME280;46115;44.484;11.314;2023-05-11T08:45:18;99836.25;;;14.77;100.00
60258;BME280;46115;44.484;11.314;2023-05-11T08:49:20;99795.63;;;14.86;100.00
60258;BME280;46115;44.484;11.314;2023-05-11T08:53:24;99831.41;;;14.82;100.00
60258;BME280;46115;44.484;11.314;2023-05-11T08:57:28;99837.19;;;14.65;100.00
60258;BME280;46115;44.484;11.314;2023-05-11T09:01:34;99821.44;;;14.97;100.00
60258;BME280;46115;44.484;11.314;2023-05-11T09:05:37;99844.84;;;14.46;100.00
60258;BME280;46115;44.484;11.314;2023-05-11T09:09:41;99846.78;;;14.44;100.00
60258;BME280;46115;44.484;11.314;2023-05-11T09:13:43;99827.03;;;14.59;100.00
60258;BME280;46115;44.484;11.314;2023-05-11T09:17:46;99844.09;;;14.68;100.00
60258;BME280;46115;44.484;11.314;2023-05-11T09:21:50;99844.78;;;14.93;100.00
60258;BME280;46115;44.484;11.314;2023-05-11T09:25:54;99845.44;;;14.84;100.00
60258;BME280;46115;44.484;11.314;2023-05-11T09:30:09;99845.91;;;15.36;100.00
60258;BME280;46115;44.484;11.314;2023-05-11T09:34:13;99842.88;;;15.29;100.00
60258;BME280;46115;44.484;11.314;2023-05-11T09:38:17;99814.66;;;15.15;100.00
60258;BME280;46115;44.484;11.314;2023-05-11T09:42:22;99841.88;;;15.19;100.00
60258;BME280;46115;44.484;11.314;2023-05-11T09:46:24;99829.22;;;15.34;100.00
60258;BME280;46115;44.484;11.314;2023-05-11T09:50:31;99819.50;;;15.10;100.00
60258;BME280;46115;44.484;11.314;2023-05-11T09:54:39;99837.94;;;15.58;100.00
60258;BME280;46115;44.484;11.314;2023-05-11T09:58:47;99837.19;;;15.45;100.00
60258;BME280;46115;44.484;11.314;2023-05-11T10:03:07;99832.25;;;15.74;100.00
60258;BME280;46115;44.484;11.314;2023-05-11T10:07:10;99810.41;;;15.80;100.00
60258;BME280;46115;44.484;11.314;2023-05-11T10:11:13;99829.63;;;16.06;100.00
60258;BME280;46115;44.484;11.314;2023-05-11T10:15:18;99826.22;;;16.15;100.00
60258;BME280;46115;44.484;11.314;2023-05-11T10:19:21;99822.75;;;16.35;99.89
60258;BME280;46115;44.484;11.314;2023-05-11T10:23:24;99817.56;;;16.34;98.75
60258;BME280;46115;44.484;11.314;2023-05-11T10:27:26;99823.03;;;16.21;100.00
60258;BME280;46115;44.484;11.314;2023-05-11T10:31:30;99807.88;;;16.21;97.05
60258;BME280;46115;44.484;11.314;2023-05-11T10:35:35;99815.59;;;16.36;97.38
60258;BME280;46115;44.484;11.314;2023-05-11T10:39:39;99823.97;;;15.99;97.87
60258;BME280;46115;44.484;11.314;2023-05-11T10:43:54;99794.41;;;15.91;100.00
60258;BME280;46115;44.484;11.314;2023-05-11T10:48:34;99809.28;;;15.94;100.00
60258;BME280;46115;44.484;11.314;2023-05-11T10:57:36;99806.50;;;16.59;98.16
60258;BME280;46115;44.484;11.314;2023-05-11T11:01:43;99804.22;;;16.66;99.28
60258;BME280;46115;44.484;11.314;2023-05-11T11:05:47;99791.91;;;16.63;99.58
60258;BME280;46115;44.484;11.314;2023-05-11T11:09:52;99796.50;;;16.93;92.07
60258;BME280;46115;44.484;11.314;2023-05-11T11:13:56;99789.75;;;16.89;89.89
60258;BME280;46115;44.484;11.314;2023-05-11T11:18:20;99798.19;;;17.15;89.12
60258;BME280;46115;44.484;11.314;2023-05-11T11:22:42;99791.09;;;17.04;87.46
60258;BME280;46115;44.484;11.314;2023-05-11T11:26:48;99787.59;;;16.83;94.23
60258;BME280;46115;44.484;11.314;2023-05-11T11:31:23;99792.50;;;16.78;88.74
60258;BME280;46115;44.484;11.314;2023-05-11T11:35:45;99802.97;;;16.70;85.70
60258;BME280;46115;44.484;11.314;2023-05-11T11:39:51;99792.25;;;16.49;85.67
60258;BME280;46115;44.484;11.314;2023-05-11T11:44:00;99807.72;;;16.66;86.50
60258;BME280;46115;44.484;11.314;2023-05-11T11:48:14;99798.56;;;16.48;90.00
60258;BME280;46115;44.484;11.314;2023-05-11T11:52:32;99780.31;;;16.85;87.21
60258;BME280;46115;44.484;11.314;2023-05-11T11:56:43;99780.19;;;17.17;90.40
60258;BME280;46115;44.484;11.314;2023-05-11T12:00:46;99781.25;;;17.35;86.43
60258;BME280;46115;44.484;11.314;2023-05-11T12:04:55;99779.31;;;16.65;88.17
60258;BME280;46115;44.484;11.314;2023-05-11T12:08:58;99788.97;;;16.77;86.73
60258;BME280;46115;44.484;11.314;2023-05-11T12:13:02;99787.47;;;17.45;86.98
60258;BME280;46115;44.484;11.314;2023-05-11T12:17:08;99783.81;;;17.37;84.91
60258;BME280;46115;44.484;11.314;2023-05-11T12:21:18;99779.25;;;17.28;84.32
60258;BME280;46115;44.484;11.314;2023-05-11T12:25:20;99744.63;;;17.17;84.46
60258;BME280;46115;44.484;11.314;2023-05-11T12:29:24;99776.22;;;17.42;82.25
60258;BME280;46115;44.484;11.314;2023-05-11T12:33:27;99739.47;;;16.94;82.43
60258;BME280;46115;44.484;11.314;2023-05-11T12:37:29;99765.88;;;17.28;83.33
60258;BME280;46115;44.484;11.314;2023-05-11T12:41:32;99778.59;;;17.05;84.40
60258;BME280;46115;44.484;11.314;2023-05-11T12:45:36;99783.13;;;17.14;81.60
60258;BME280;46115;44.484;11.314;2023-05-11T12:49:40;99780.22;;;17.27;83.04
60258;BME280;46115;44.484;11.314;2023-05-11T12:53:43;99764.53;;;17.03;86.70
60258;BME280;46115;44.484;11.314;2023-05-11T12:57:46;99785.50;;;17.38;84.98
60258;BME280;46115;44.484;11.314;2023-05-11T13:01:52;99793.94;;;17.43;83.75
60258;BME280;46115;44.484;11.314;2023-05-11T13:06:03;99783.16;;;16.93;84.69
60258;BME280;46115;44.484;11.314;2023-05-11T13:10:06;99776.66;;;17.47;83.84
60258;BME280;46115;44.484;11.314;2023-05-11T13:14:15;99799.91;;;17.66;82.98
60258;BME280;46115;44.484;11.314;2023-05-11T13:18:19;99793.84;;;17.54;84.38
60258;BME280;46115;44.484;11.314;2023-05-11T13:22:21;99791.53;;;17.70;79.82
60258;BME280;46115;44.484;11.314;2023-05-11T13:26:24;99762.44;;;17.06;87.10
60258;BME280;46115;44.484;11.314;2023-05-11T13:30:27;99781.00;;;16.87;85.08
60258;BME280;46115;44.484;11.314;2023-05-11T13:34:31;99776.84;;;17.25;84.70
60258;BME280;46115;44.484;11.314;2023-05-11T13:38:33;99771.63;;;17.23;82.44
60258;BME280;46115;44.484;11.314;2023-05-11T13:42:36;99761.38;;;16.98;85.56
60258;BME280;46115;44.484;11.314;2023-05-11T13:46:39;99774.44;;;17.22;85.40
60258;BME280;46115;44.484;11.314;2023-05-11T13:50:43;99777.50;;;17.48;83.73
60258;BME280;46115;44.484;11.314;2023-05-11T13:54:46;99771.91;;;17.20;81.97
60258;BME280;46115;44.484;11.314;2023-05-11T13:58:49;99770.13;;;17.00;85.46
60258;BME280;46115;44.484;11.314;2023-05-11T14:02:51;99755.88;;;17.20;85.24
60258;BME280;46115;44.484;11.314;2023-05-11T14:06:55;99775.25;;;17.43;83.08
60258;BME280;46115;44.484;11.314;2023-05-11T14:10:58;99772.13;;;17.38;84.46
60258;BME280;46115;44.484;11.314;2023-05-11T14:15:00;99771.88;;;17.10;84.39
60258;BME280;46115;44.484;11.314;2023-05-11T14:19:02;99767.00;;;17.25;83.08
60258;BME280;46115;44.484;11.314;2023-05-11T14:23:06;99760.25;;;17.21;82.66
60258;BME280;46115;44.484;11.314;2023-05-11T14:27:09;99759.09;;;16.83;83.50
60258;BME280;46115;44.484;11.314;2023-05-11T14:31:11;99750.63;;;16.78;84.88
60258;BME280;46115;44.484;11.314;2023-05-11T14:35:14;99746.31;;;16.87;84.61
60258;BME280;46115;44.484;11.314;2023-05-11T14:39:17;99743.47;;;16.79;85.02
60258;BME280;46115;44.484;11.314;2023-05-11T14:43:20;99740.88;;;17.29;83.94
60258;BME280;46115;44.484;11.314;2023-05-11T14:47:24;99736.31;;;17.10;83.18
60258;BME280;46115;44.484;11.314;2023-05-11T14:51:26;99757.66;;;17.40;82.88
60258;BME280;46115;44.484;11.314;2023-05-11T14:55:30;99762.72;;;17.43;82.64
60258;BME280;46115;44.484;11.314;2023-05-11T14:59:33;99756.31;;;16.95;82.72
60258;BME280;46115;44.484;11.314;2023-05-11T15:03:35;99764.19;;;17.27;83.00
60258;BME280;46115;44.484;11.314;2023-05-11T15:07:38;99768.22;;;17.11;82.73
60258;BME280;46115;44.484;11.314;2023-05-11T15:11:41;99764.16;;;17.17;82.68
60258;BME280;46115;44.484;11.314;2023-05-11T15:15:44;99756.72;;;17.21;81.57
60258;BME280;46115;44.484;11.314;2023-05-11T15:19:46;99760.03;;;16.62;84.67
60258;BME280;46115;44.484;11.314;2023-05-11T15:23:48;99765.97;;;17.07;79.92
60258;BME280;46115;44.484;11.314;2023-05-11T15:27:53;99765.00;;;16.87;83.29
60258;BME280;46115;44.484;11.314;2023-05-11T15:31:55;99758.56;;;16.90;84.58
60258;BME280;46115;44.484;11.314;2023-05-11T15:35:58;99770.78;;;16.50;87.60
60258;BME280;46115;44.484;11.314;2023-05-11T15:40:00;99764.34;;;16.95;83.91
60258;BME280;46115;44.484;11.314;2023-05-11T15:44:04;99778.88;;;16.81;84.08
60258;BME280;46115;44.484;11.314;2023-05-11T15:48:07;99742.47;;;16.59;84.11
60258;BME280;46115;44.484;11.314;2023-05-11T15:52:09;99779.88;;;16.48;83.99
60258;BME280;46115;44.484;11.314;2023-05-11T15:56:12;99765.28;;;17.14;80.36
60258;BME280;46115;44.484;11.314;2023-05-11T16:00:16;99767.41;;;16.16;84.43
60258;BME280;46115;44.484;11.314;2023-05-11T16:04:19;99766.59;;;16.69;85.91
60258;BME280;46115;44.484;11.314;2023-05-11T16:08:21;99775.78;;;16.44;86.91
60258;BME280;46115;44.484;11.314;2023-05-11T16:12:24;99764.38;;;16.74;86.57
60258;BME280;46115;44.484;11.314;2023-05-11T16:16:28;99763.53;;;16.62;85.54
60258;BME280;46115;44.484;11.314;2023-05-11T16:20:31;99777.41;;;16.67;86.13
60258;BME280;46115;44.484;11.314;2023-05-11T16:24:33;99773.44;;;16.50;88.35
60258;BME280;46115;44.484;11.314;2023-05-11T16:28:35;99765.47;;;16.71;85.88
60258;BME280;46115;44.484;11.314;2023-05-11T16:32:39;99769.84;;;16.72;84.44
60258;BME280;46115;44.484;11.314;2023-05-11T16:36:43;99785.97;;;16.92;83.79
60258;BME280;46115;44.484;11.314;2023-05-11T16:40:46;99785.44;;;16.24;87.27
60258;BME280;46115;44.484;11.314;2023-05-11T16:44:49;99786.13;;;16.58;86.21
60258;BME280;46115;44.484;11.314;2023-05-11T16:48:53;99792.84;;;15.88;87.96
60258;BME280;46115;44.484;11.314;2023-05-11T16:52:56;99799.16;;;16.51;87.20
60258;BME280;46115;44.484;11.314;2023-05-11T16:56:58;99788.75;;;16.16;87.76
60258;BME280;46115;44.484;11.314;2023-05-11T17:01:01;99795.25;;;16.56;86.71
60258;BME280;46115;44.484;11.314;2023-05-11T17:05:06;99799.94;;;16.42;87.05
60258;BME280;46115;44.484;11.314;2023-05-11T17:09:09;99801.28;;;16.69;84.24
60258;BME280;46115;44.484;11.314;2023-05-11T17:13:11;99806.00;;;16.65;84.18
60258;BME280;46115;44.484;11.314;2023-05-11T17:17:14;99793.81;;;16.31;85.27
60258;BME280;46115;44.484;11.314;2023-05-11T17:21:18;99792.44;;;16.57;84.12
60258;BME280;46115;44.484;11.314;2023-05-11T17:25:20;99789.31;;;16.31;86.10
60258;BME280;46115;44.484;11.314;2023-05-11T17:29:22;99788.81;;;16.26;88.07
60258;BME280;46115;44.484;11.314;2023-05-11T17:33:25;99782.31;;;15.87;91.78
60258;BME280;46115;44.484;11.314;2023-05-11T17:37:29;99795.13;;;16.25;88.58
60258;BME280;46115;44.484;11.314;2023-05-11T17:41:31;99795.63;;;16.51;87.86
60258;BME280;46115;44.484;11.314;2023-05-11T17:45:34;99793.84;;;15.76;91.69
60258;BME280;46115;44.484;11.314;2023-05-11T17:49:36;99791.66;;;15.81;92.04
60258;BME280;46115;44.484;11.314;2023-05-11T17:53:40;99785.28;;;16.37;86.49
60258;BME280;46115;44.484;11.314;2023-05-11T17:57:43;99774.03;;;16.01;87.44
60258;BME280;46115;44.484;11.314;2023-05-11T18:01:45;99801.09;;;16.17;85.41
60258;BME280;46115;44.484;11.314;2023-05-11T18:05:48;99808.31;;;15.95;87.82
60258;BME280;46115;44.484;11.314;2023-05-11T18:09:52;99808.16;;;15.64;91.16
60258;BME280;46115;44.484;11.314;2023-05-11T18:13:54;99812.28;;;16.11;90.80
60258;BME280;46115;44.484;11.314;2023-05-11T18:17:57;99813.97;;;16.12;88.79
60258;BME280;46115;44.484;11.314;2023-05-11T18:21:59;99811.06;;;15.61;90.89
60258;BME280;46115;44.484;11.314;2023-05-11T18:26:03;99823.50;;;15.83;89.14
60258;BME280;46115;44.484;11.314;2023-05-11T18:30:06;99837.50;;;16.07;88.37
60258;BME280;46115;44.484;11.314;2023-05-11T18:34:09;99828.84;;;15.27;94.72
60258;BME280;46115;44.484;11.314;2023-05-11T18:38:11;99831.50;;;15.83;92.81
60258;BME280;46115;44.484;11.314;2023-05-11T18:42:15;99831.78;;;15.69;92.10
60258;BME280;46115;44.484;11.314;2023-05-11T18:46:17;99831.72;;;15.24;95.98
60258;BME280;46115;44.484;11.314;2023-05-11T18:50:20;99841.75;;;15.20;94.65
60258;BME280;46115;44.484;11.314;2023-05-11T18:54:22;99840.75;;;14.88;98.97
60258;BME280;46115;44.484;11.314;2023-05-11T18:58:26;99853.81;;;14.91;99.73
60258;BME280;46115;44.484;11.314;2023-05-11T19:02:29;99853.50;;;14.95;100.00
60258;BME280;46115;44.484;11.314;2023-05-11T19:06:33;99868.78;;;14.81;100.00
60258;BME280;46115;44.484;11.314;2023-05-11T19:10:35;99865.94;;;15.64;93.17
60258;BME280;46115;44.484;11.314;2023-05-11T19:14:40;99874.16;;;14.92;98.91
60258;BME280;46115;44.484;11.314;2023-05-11T22:06:08;99977.31;;;14.28;100.00
60258;BME280;46115;44.484;11.314;2023-05-11T22:10:11;99975.41;;;14.17;100.00
60258;BME280;46115;44.484;11.314;2023-05-11T22:14:13;99976.41;;;14.40;100.00
60258;BME280;46115;44.484;11.314;2023-05-11T22:18:16;99963.06;;;14.29;100.00
60258;BME280;46115;44.484;11.314;2023-05-11T22:22:19;99974.94;;;14.36;100.00
60258;BME280;46115;44.484;11.314;2023-05-11T22:26:22;99974.91;;;14.49;100.00
60258;BME280;46115;44.484;11.314;2023-05-11T22:30:24;99980.63;;;14.55;100.00
60258;BME280;46115;44.484;11.314;2023-05-11T22:34:26;99948.81;;;14.17;100.00
60258;BME280;46115;44.484;11.314;2023-05-11T22:38:30;99975.50;;;14.16;100.00
60258;BME280;46115;44.484;11.314;2023-05-11T22:42:34;99970.63;;;14.10;100.00
60258;BME280;46115;44.484;11.314;2023-05-11T22:46:36;99973.19;;;14.24;100.00
60258;BME280;46115;44.484;11.314;2023-05-11T22:50:39;99963.63;;;14.09;100.00
60258;BME280;46115;44.484;11.314;2023-05-11T22:54:51;99974.28;;;14.45;100.00
60258;BME280;46115;44.484;11.314;2023-05-11T22:58:54;99963.00;;;14.42;100.00
60258;BME280;46115;44.484;11.314;2023-05-11T23:03:00;99952.91;;;13.85;100.00
60258;BME280;46115;44.484;11.314;2023-05-11T23:07:03;99942.28;;;13.97;100.00
60258;BME280;46115;44.484;11.314;2023-05-11T23:11:09;99947.59;;;13.97;100.00
60258;BME280;46115;44.484;11.314;2023-05-11T23:15:11;99939.25;;;13.65;100.00
60258;BME280;46115;44.484;11.314;2023-05-11T23:19:13;99952.81;;;13.86;100.00
60258;BME280;46115;44.484;11.314;2023-05-11T23:23:16;99944.34;;;14.18;100.00
60258;BME280;46115;44.484;11.314;2023-05-11T23:27:19;99942.88;;;14.26;100.00
60258;BME280;46115;44.484;11.314;2023-05-11T23:31:22;99945.41;;;14.28;100.00
60258;BME280;46115;44.484;11.314;2023-05-11T23:35:24;99953.00;;;14.58;100.00
60258;BME280;46115;44.484;11.314;2023-05-11T23:39:27;99953.75;;;14.47;100.00
60258;BME280;46115;44.484;11.314;2023-05-11T23:43:31;99918.50;;;13.83;100.00
60258;BME280;46115;44.484;11.314;2023-05-11T23:47:34;99956.44;;;13.98;100.00
60258;BME280;46115;44.484;11.314;2023-05-11T23:51:36;99961.00;;;13.83;100.00
60258;BME280;46115;44.484;11.314;2023-05-11T23:55:38;99961.34;;;13.91;100.00
60258;BME280;46115;44.484;11.314;2023-05-11T23:59:43;99966.88;;;13.63;100.00
